Chassell, Michigan
Current Conditions -  °F | °C
As of 10:01 PM on Friday 19 Dec 2014 (Local Time) from KCMX Reporting Station
Overcast Overcast  
Wind Chill: 18°   Ceiling: 9000
Heat Index: 25°   Visibility: 10mi
Dew Point: 19°   Wind: 6mph
Humidity: 78%   Direction: 200°SSW
Pressure: 30.22"   Gusts: NA
Location:  47.03°N, 88.53°W
Report Text: KCMX 200301Z AUTO 20005KT 10SM SCT018 OVC090 M04/M07 A3022 RMK AO2 T10391072 $
Loading
Personal Weather Stations






























Interactive Weather Map New forecast layout! Learn more

10-Day Weather Forecast

Advertisements
Track Severe Weather on mobile